Aviation Digital Data Service (ADDS)

Output produced by METARs form (1221 UTC 19 January 2019)
found at http://www.aviationweather.gov/metar/data/
 
Forecast for: EVRA (RIGA AIRPORT , LV)
Text: TAF EVRA 191102Z 1912/2012 22007KT 9999 FEW040
Forecast period: 1200 to 2000 UTC 19 January 2019
Forecast type: FROM: standard forecast or significant change
Winds: from the SW (220 degrees) at 8 MPH (7 knots; 3.6 m/s)
Visibility: 6 or more miles 10+ km)
Ceiling: at least 12,000 feet AGL
Clouds: few clouds at 4000 feet AGL
Weather: no significant weather forecast for this period
Text: BECMG 1920/1922 27007KT
Forecast period: 2000 UTC 19 January 2019 to 1200 UTC 20 January 2019
Forecast type: BECOMING: Conditions expected to become as follows by 2200 UTC 19 January 2019
Winds: from the W (270 degrees) at 8 MPH (7 knots; 3.6 m/s)
Visibility: 6 or more miles 10+ km)
Ceiling: at least 12,000 feet AGL
Clouds: few clouds at 4000 feet AGL
Weather: no significant weather forecast for this period
Text: TEMPO 1922/2004 1500 SHSN BKN005 BKN010CB
Forecast period: 2200 UTC 19 January 2019 to 0400 UTC 20 January 2019
Forecast type: TEMPORARY: The following changes expected for less than half the time period
Visibility: 0.93 miles (1.50 km)
Ceiling: 500 feet AGL
Clouds: broken clouds at 500 feet AGL
broken clouds at 1000 feet AGL
Weather: SHSN  (snow showers)